Wetterdaten: Woche 17.08.09 - 23.08.09 (KW34)
Datum Zeit Temperatur Luftfeuchte Luftdruck Niederschlag Wind Richtung Sonnenschein Solar Taupunkt Windchill Windben
17.08.2009 00:00 19.2 C 81 % 1016.0 hPa 0.0 l/m 1.1 km/h (0 Bft) O 0.00 h 0 W/m 15.8 C 19.2 C 2.1 km/h (1 Bft)
17.08.2009 01:00 18.5 C 84 % 1015.9 hPa 0.0 l/m 0.6 km/h (0 Bft) O 0.00 h 0 W/m 15.7 C 18.5 C 1.4 km/h (1 Bft)
17.08.2009 02:00 17.9 C 86 % 1015.9 hPa 0.0 l/m 0.6 km/h (0 Bft) O 0.00 h 0 W/m 15.6 C 17.9 C 1.6 km/h (1 Bft)
17.08.2009 03:00 17.5 C 88 % 1015.7 hPa 0.0 l/m 0.1 km/h (0 Bft) O 0.00 h 0 W/m 15.5 C 17.5 C 0.3 km/h (0 Bft)
17.08.2009 04:00 17.0 C 90 % 1015.7 hPa 0.0 l/m 0.0 km/h (0 Bft) N 0.00 h 0 W/m 15.4 C 17.0 C 0.0 km/h (0 Bft)
17.08.2009 05:00 16.6 C 92 % 1015.4 hPa 0.0 l/m 0.0 km/h (0 Bft) N 0.00 h 0 W/m 15.3 C 16.6 C 0.0 km/h (0 Bft)
17.08.2009 06:00 16.1 C 93 % 1015.5 hPa 0.0 l/m 0.0 km/h (0 Bft) N 0.02 h 13 W/m 14.9 C 16.1 C 0.0 km/h (0 Bft)
17.08.2009 07:00 15.8 C 94 % 1015.9 hPa 0.0 l/m 0.0 km/h (0 Bft) N 0.10 h 49 W/m 14.9 C 15.8 C 0.0 km/h (0 Bft)
17.08.2009 08:00 18.1 C 94 % 1016.3 hPa 0.0 l/m 0.0 km/h (0 Bft) N 0.93 h 227 W/m 17.0 C 18.1 C 0.0 km/h (0 Bft)
17.08.2009 09:00 22.3 C 74 % 1016.0 hPa 0.0 l/m 0.9 km/h (0 Bft) O-SO 1.00 h 394 W/m 17.5 C 22.3 C 2.5 km/h (1 Bft)
17.08.2009 10:00 25.1 C 62 % 1016.0 hPa 0.0 l/m 1.7 km/h (1 Bft) W 0.98 h 502 W/m 17.2 C 25.1 C 4.5 km/h (1 Bft)
17.08.2009 11:00 27.1 C 53 % 1015.8 hPa 0.0 l/m 3.0 km/h (1 Bft) S-SO 1.00 h 657 W/m 16.6 C 27.1 C 6.9 km/h (2 Bft)
17.08.2009 12:00 28.7 C 49 % 1015.5 hPa 0.0 l/m 2.3 km/h (1 Bft) W 1.00 h 727 W/m 16.8 C 28.7 C 5.2 km/h (1 Bft)
17.08.2009 13:00 29.9 C 47 % 1014.9 hPa 0.0 l/m 2.5 km/h (1 Bft) S-SO 0.92 h 697 W/m 17.4 C 29.9 C 5.7 km/h (1 Bft)
17.08.2009 14:00 30.0 C 45 % 1014.6 hPa 0.0 l/m 2.6 km/h (1 Bft) S-SO 0.78 h 576 W/m 16.5 C 30.0 C 5.7 km/h (1 Bft)
17.08.2009 15:00 31.0 C 39 % 1013.9 hPa 0.0 l/m 3.4 km/h (1 Bft) S-SO 0.82 h 611 W/m 15.5 C 31.0 C 6.9 km/h (2 Bft)
17.08.2009 16:00 31.7 C 34 % 1013.2 hPa 0.0 l/m 4.1 km/h (1 Bft) W-SW 0.73 h 459 W/m 13.9 C 31.7 C 8.0 km/h (2 Bft)
17.08.2009 17:00 30.0 C 38 % 1012.8 hPa 0.0 l/m 4.7 km/h (1 Bft) W-SW 0.52 h 302 W/m 14.2 C 30.0 C 8.5 km/h (2 Bft)
17.08.2009 18:00 28.9 C 44 % 1012.8 hPa 2.6 l/m 9.2 km/h (2 Bft) W 0.23 h 120 W/m 15.1 C 28.9 C 15.0 km/h (3 Bft)
17.08.2009 19:00 22.1 C 77 % 1014.0 hPa 0.0 l/m 3.5 km/h (1 Bft) SO 0.00 h 27 W/m 17.8 C 22.1 C 5.1 km/h (1 Bft)
17.08.2009 20:00 20.5 C 87 % 1014.7 hPa 0.0 l/m 2.0 km/h (1 Bft) O-SO 0.00 h 0 W/m 18.2 C 20.5 C 3.6 km/h (1 Bft)
17.08.2009 21:00 20.1 C 90 % 1015.2 hPa 0.4 l/m 1.8 km/h (1 Bft) O 0.00 h 0 W/m 18.5 C 20.1 C 4.5 km/h (1 Bft)
17.08.2009 22:00 20.3 C 89 % 1015.5 hPa 0.0 l/m 2.6 km/h (1 Bft) O 0.00 h 0 W/m 18.5 C 20.3 C 4.8 km/h (1 Bft)
17.08.2009 23:00 20.0 C 89 % 1016.0 hPa 0.0 l/m 1.0 km/h (0 Bft) O 0.00 h 0 W/m 18.2 C 20.0 C 2.4 km/h (1 Bft)
18.08.2009 00:00 19.2 C 92 % 1016.5 hPa 0.0 l/m 1.6 km/h (1 Bft) O-SO 0.00 h 0 W/m 17.9 C 19.2 C 3.0 km/h (1 Bft)
18.08.2009 01:00 19.0 C 93 % 1016.9 hPa 0.0 l/m 0.9 km/h (0 Bft) O-SO 0.00 h 0 W/m 17.9 C 19.0 C 2.1 km/h (1 Bft)
18.08.2009 02:00 18.8 C 94 % 1016.9 hPa 0.0 l/m 0.0 km/h (0 Bft) N 0.00 h 0 W/m 17.8 C 18.8 C 0.3 km/h (0 Bft)
18.08.2009 03:00 18.4 C 94 % 1016.9 hPa 0.0 l/m 0.0 km/h (0 Bft) N 0.00 h 0 W/m 17.4 C 18.4 C 0.1 km/h (0 Bft)
18.08.2009 04:00 18.0 C 94 % 1017.0 hPa 0.0 l/m 0.0 km/h (0 Bft) O-SO 0.00 h 0 W/m 17.0 C 18.0 C 0.3 km/h (0 Bft)
18.08.2009 05:00 17.6 C 95 % 1017.0 hPa 0.0 l/m 0.0 km/h (0 Bft) N 0.00 h 0 W/m 16.7 C 17.6 C 0.0 km/h (0 Bft)
18.08.2009 06:00 17.2 C 96 % 1017.9 hPa 0.0 l/m 0.0 km/h (0 Bft) N 0.00 h 13 W/m 16.6 C 17.2 C 0.0 km/h (0 Bft)
18.08.2009 07:00 17.4 C 97 % 1018.6 hPa 0.0 l/m 0.0 km/h (0 Bft) N 0.00 h 57 W/m 16.8 C 17.4 C 0.0 km/h (0 Bft)
18.08.2009 08:00 18.8 C 97 % 1019.0 hPa 0.0 l/m 0.0 km/h (0 Bft) S-SW 0.58 h 189 W/m 18.3 C 18.8 C 0.1 km/h (0 Bft)
18.08.2009 09:00 21.2 C 86 % 1019.1 hPa 0.0 l/m 0.5 km/h (0 Bft) W-NW 1.00 h 372 W/m 18.7 C 21.2 C 1.9 km/h (1 Bft)
18.08.2009 10:00 23.3 C 78 % 1018.9 hPa 0.0 l/m 1.1 km/h (1 Bft) W-NW 1.00 h 523 W/m 19.3 C 23.3 C 2.8 km/h (1 Bft)
18.08.2009 11:00 25.2 C 71 % 1018.9 hPa 0.0 l/m 1.3 km/h (1 Bft) W-NW 1.00 h 645 W/m 19.5 C 25.2 C 3.1 km/h (1 Bft)
18.08.2009 12:00 26.9 C 65 % 1018.7 hPa 0.0 l/m 1.3 km/h (1 Bft) W 1.00 h 722 W/m 19.8 C 26.9 C 3.5 km/h (1 Bft)
18.08.2009 13:00 28.3 C 57 % 1018.3 hPa 0.0 l/m 4.1 km/h (1 Bft) W 1.00 h 757 W/m 19.0 C 28.3 C 7.4 km/h (2 Bft)
18.08.2009 14:00 29.3 C 52 % 1018.0 hPa 0.0 l/m 6.4 km/h (2 Bft) W 1.00 h 738 W/m 18.3 C 29.3 C 10.4 km/h (2 Bft)
18.08.2009 15:00 30.2 C 51 % 1017.5 hPa 0.0 l/m 5.4 km/h (1 Bft) W 1.00 h 669 W/m 19.0 C 30.2 C 9.1 km/h (2 Bft)
18.08.2009 16:00 30.6 C 50 % 1017.1 hPa 0.0 l/m 4.9 km/h (1 Bft) W 1.00 h 548 W/m 19.0 C 30.6 C 7.8 km/h (2 Bft)
18.08.2009 17:00 30.5 C 47 % 1016.8 hPa 0.0 l/m 5.6 km/h (1 Bft) W 1.00 h 410 W/m 18.0 C 30.5 C 8.5 km/h (2 Bft)
18.08.2009 18:00 29.8 C 52 % 1016.5 hPa 0.0 l/m 3.1 km/h (1 Bft) W-SW 1.00 h 253 W/m 18.7 C 29.8 C 5.9 km/h (2 Bft)
18.08.2009 19:00 27.8 C 55 % 1016.7 hPa 0.0 l/m 1.1 km/h (0 Bft) W-SW 0.30 h 70 W/m 17.8 C 27.8 C 3.3 km/h (1 Bft)
18.08.2009 20:00 26.1 C 62 % 1017.1 hPa 0.0 l/m 2.3 km/h (1 Bft) O 0.00 h 9 W/m 18.0 C 26.1 C 3.5 km/h (1 Bft)
18.08.2009 21:00 23.7 C 73 % 1018.0 hPa 0.0 l/m 0.6 km/h (0 Bft) O-SO 0.00 h 0 W/m 18.6 C 23.7 C 1.4 km/h (1 Bft)
18.08.2009 22:00 22.3 C 77 % 1018.5 hPa 0.0 l/m 0.2 km/h (0 Bft) O-SO 0.00 h 0 W/m 18.0 C 22.3 C 1.5 km/h (1 Bft)
18.08.2009 23:00 21.3 C 81 % 1018.5 hPa 0.0 l/m 1.0 km/h (0 Bft) O-SO 0.00 h 0 W/m 17.8 C 21.3 C 2.0 km/h (1 Bft)
19.08.2009 00:00 20.4 C 82 % 1018.5 hPa 0.0 l/m 0.0 km/h (0 Bft) O-SO 0.00 h 0 W/m 17.1 C 20.4 C 0.5 km/h (0 Bft)
19.08.2009 01:00 19.8 C 83 % 1018.6 hPa 0.0 l/m 0.0 km/h (0 Bft) N 0.00 h 0 W/m 16.7 C 19.8 C 0.2 km/h (0 Bft)
19.08.2009 02:00 19.1 C 85 % 1018.5 hPa 0.0 l/m 0.0 km/h (0 Bft) O-SO 0.00 h 0 W/m 16.5 C 19.1 C 0.2 km/h (0 Bft)
19.08.2009 03:00 18.6 C 89 % 1018.5 hPa 0.0 l/m 0.4 km/h (0 Bft) O 0.00 h 0 W/m 16.7 C 18.6 C 1.0 km/h (0 Bft)
19.08.2009 04:00 17.9 C 92 % 1018.6 hPa 0.0 l/m 0.6 km/h (0 Bft) O 0.00 h 0 W/m 16.6 C 17.9 C 1.6 km/h (1 Bft)
19.08.2009 05:00 17.2 C 94 % 1018.7 hPa 0.0 l/m 0.7 km/h (0 Bft) SO 0.00 h 0 W/m 16.1 C 17.2 C 1.2 km/h (1 Bft)
19.08.2009 06:00 16.7 C 95 % 1019.0 hPa 0.0 l/m 0.1 km/h (0 Bft) O 0.02 h 12 W/m 15.9 C 16.7 C 0.2 km/h (0 Bft)
19.08.2009 07:00 16.7 C 96 % 1019.4 hPa 0.0 l/m 0.3 km/h (0 Bft) O 0.00 h 43 W/m 16.0 C 16.7 C 0.6 km/h (0 Bft)
19.08.2009 08:00 18.5 C 96 % 1019.7 hPa 0.0 l/m 0.0 km/h (0 Bft) N 1.00 h 217 W/m 17.9 C 18.5 C 0.1 km/h (0 Bft)
19.08.2009 09:00 21.5 C 82 % 1019.8 hPa 0.0 l/m 0.5 km/h (0 Bft) N 1.00 h 375 W/m 18.3 C 21.5 C 1.8 km/h (1 Bft)
19.08.2009 10:00 24.0 C 72 % 1019.8 hPa 0.0 l/m 1.4 km/h (1 Bft) N 1.00 h 512 W/m 18.5 C 24.0 C 3.0 km/h (1 Bft)
19.08.2009 11:00 26.1 C 66 % 1019.7 hPa 0.0 l/m 1.3 km/h (1 Bft) NW 1.00 h 631 W/m 19.3 C 26.1 C 3.1 km/h (1 Bft)
19.08.2009 12:00 27.7 C 63 % 1019.5 hPa 0.0 l/m 1.3 km/h (1 Bft) W-NW 1.00 h 713 W/m 19.9 C 27.7 C 3.4 km/h (1 Bft)
19.08.2009 13:00 29.2 C 57 % 1019.0 hPa 0.0 l/m 1.3 km/h (1 Bft) W-NW 1.00 h 743 W/m 19.6 C 29.2 C 3.3 km/h (1 Bft)
19.08.2009 14:00 30.7 C 47 % 1018.6 hPa 0.0 l/m 2.3 km/h (1 Bft) SO 1.00 h 728 W/m 18.2 C 30.7 C 4.6 km/h (1 Bft)
19.08.2009 15:00 31.7 C 43 % 1018.1 hPa 0.0 l/m 1.7 km/h (1 Bft) SO 1.00 h 663 W/m 17.7 C 31.7 C 3.9 km/h (1 Bft)
19.08.2009 16:00 32.1 C 40 % 1017.8 hPa 0.0 l/m 1.7 km/h (1 Bft) O-SO 1.00 h 545 W/m 16.8 C 32.1 C 3.6 km/h (1 Bft)
19.08.2009 17:00 32.3 C 41 % 1017.5 hPa 0.0 l/m 1.1 km/h (1 Bft) W 1.00 h 405 W/m 17.2 C 32.3 C 2.9 km/h (1 Bft)
19.08.2009 18:00 31.8 C 43 % 1017.4 hPa 0.0 l/m 2.2 km/h (1 Bft) O-SO 1.00 h 246 W/m 17.6 C 31.8 C 3.5 km/h (1 Bft)
19.08.2009 19:00 30.3 C 53 % 1017.5 hPa 0.0 l/m 2.3 km/h (1 Bft) O-SO 0.62 h 91 W/m 19.6 C 30.3 C 4.0 km/h (1 Bft)
19.08.2009 20:00 27.6 C 66 % 1017.8 hPa 0.0 l/m 2.8 km/h (1 Bft) O-SO 0.03 h 13 W/m 20.5 C 27.6 C 4.1 km/h (1 Bft)
19.08.2009 21:00 24.6 C 75 % 1018.5 hPa 0.0 l/m 3.5 km/h (1 Bft) O-SO 0.00 h 0 W/m 19.9 C 24.6 C 4.8 km/h (1 Bft)
19.08.2009 22:00 23.1 C 79 % 1018.8 hPa 0.0 l/m 0.7 km/h (0 Bft) O-SO 0.00 h 0 W/m 19.2 C 23.1 C 1.5 km/h (1 Bft)
19.08.2009 23:00 22.0 C 82 % 1019.1 hPa 0.0 l/m 1.1 km/h (1 Bft) O-SO 0.00 h 0 W/m 18.8 C 22.0 C 1.9 km/h (1 Bft)
20.08.2009 00:00 21.1 C 85 % 1019.5 hPa 0.0 l/m 1.1 km/h (1 Bft) O-SO 0.00 h 0 W/m 18.5 C 21.1 C 2.0 km/h (1 Bft)
20.08.2009 01:00 20.2 C 88 % 1019.3 hPa 0.0 l/m 0.9 km/h (0 Bft) O-SO 0.00 h 0 W/m 18.2 C 20.2 C 1.7 km/h (1 Bft)
20.08.2009 02:00 19.6 C 91 % 1018.9 hPa 0.0 l/m 1.1 km/h (1 Bft) O-SO 0.00 h 0 W/m 18.0 C 19.6 C 2.1 km/h (1 Bft)
20.08.2009 03:00 19.0 C 92 % 1018.9 hPa 0.0 l/m 0.0 km/h (0 Bft) O-SO 0.00 h 0 W/m 17.6 C 19.0 C 0.3 km/h (0 Bft)
20.08.2009 04:00 18.5 C 93 % 1019.0 hPa 0.0 l/m 1.6 km/h (1 Bft) O-SO 0.00 h 0 W/m 17.4 C 18.5 C 2.6 km/h (1 Bft)
20.08.2009 05:00 18.0 C 95 % 1019.0 hPa 0.0 l/m 0.7 km/h (0 Bft) O 0.00 h 0 W/m 17.1 C 18.0 C 1.6 km/h (1 Bft)
20.08.2009 06:00 17.5 C 95 % 1019.1 hPa 0.0 l/m 0.5 km/h (0 Bft) O 0.03 h 12 W/m 16.7 C 17.5 C 1.1 km/h (1 Bft)
20.08.2009 07:00 17.4 C 97 % 1019.3 hPa 0.0 l/m 0.1 km/h (0 Bft) O 0.03 h 44 W/m 16.9 C 17.4 C 0.3 km/h (0 Bft)
20.08.2009 08:00 19.3 C 96 % 1019.5 hPa 0.0 l/m 0.0 km/h (0 Bft) N 1.00 h 209 W/m 18.7 C 19.3 C 0.0 km/h (0 Bft)
20.08.2009 09:00 22.5 C 83 % 1019.5 hPa 0.0 l/m 0.0 km/h (0 Bft) N 1.00 h 366 W/m 19.4 C 22.5 C 0.0 km/h (0 Bft)
20.08.2009 10:00 24.8 C 75 % 1019.3 hPa 0.0 l/m 0.0 km/h (0 Bft) N 1.00 h 511 W/m 20.0 C 24.8 C 0.0 km/h (0 Bft)
20.08.2009 11:00 27.2 C 64 % 1019.1 hPa 0.0 l/m 0.1 km/h (0 Bft) SO 1.00 h 631 W/m 19.7 C 27.2 C 1.0 km/h (0 Bft)
20.08.2009 12:00 28.7 C 56 % 1018.7 hPa 0.0 l/m 2.5 km/h (1 Bft) S-SO 1.00 h 708 W/m 19.2 C 28.7 C 5.3 km/h (1 Bft)
20.08.2009 13:00 30.2 C 51 % 1018.2 hPa 0.0 l/m 2.9 km/h (1 Bft) O-SO 1.00 h 742 W/m 18.9 C 30.2 C 5.4 km/h (1 Bft)
20.08.2009 14:00 31.5 C 49 % 1017.7 hPa 0.0 l/m 2.1 km/h (1 Bft) SO 1.00 h 724 W/m 19.5 C 31.5 C 4.5 km/h (1 Bft)
20.08.2009 15:00 32.8 C 46 % 1017.0 hPa 0.0 l/m 2.5 km/h (1 Bft) W-NW 1.00 h 655 W/m 19.5 C 32.8 C 5.2 km/h (1 Bft)
20.08.2009 16:00 33.1 C 42 % 1016.6 hPa 0.0 l/m 2.1 km/h (1 Bft) SO 1.00 h 548 W/m 18.3 C 33.1 C 4.4 km/h (1 Bft)
20.08.2009 17:00 33.3 C 38 % 1016.2 hPa 0.0 l/m 1.8 km/h (1 Bft) W 1.00 h 410 W/m 17.1 C 33.3 C 4.2 km/h (1 Bft)
20.08.2009 18:00 32.8 C 38 % 1015.8 hPa 0.0 l/m 1.5 km/h (1 Bft) W 1.00 h 254 W/m 16.7 C 32.8 C 4.0 km/h (1 Bft)
20.08.2009 19:00 30.9 C 49 % 1015.7 hPa 0.0 l/m 1.1 km/h (1 Bft) SO 0.40 h 82 W/m 18.9 C 30.9 C 2.5 km/h (1 Bft)
20.08.2009 20:00 27.6 C 62 % 1016.2 hPa 0.0 l/m 3.4 km/h (1 Bft) O-SO 0.03 h 12 W/m 19.7 C 27.6 C 5.0 km/h (1 Bft)
20.08.2009 21:00 24.8 C 69 % 1016.8 hPa 0.0 l/m 2.1 km/h (1 Bft) O-SO 0.00 h 0 W/m 18.7 C 24.8 C 3.4 km/h (1 Bft)
20.08.2009 22:00 23.4 C 74 % 1017.0 hPa 0.0 l/m 1.2 km/h (1 Bft) O-SO 0.00 h 0 W/m 18.5 C 23.4 C 2.2 km/h (1 Bft)
20.08.2009 23:00 22.2 C 79 % 1017.3 hPa 0.0 l/m 0.6 km/h (0 Bft) O-SO 0.00 h 0 W/m 18.5 C 22.2 C 1.4 km/h (1 Bft)
21.08.2009 00:00 21.3 C 83 % 1017.2 hPa 0.0 l/m 1.0 km/h (0 Bft) O-SO 0.00 h 0 W/m 18.2 C 21.3 C 1.6 km/h (1 Bft)
21.08.2009 01:00 20.5 C 86 % 1017.3 hPa 0.0 l/m 0.9 km/h (0 Bft) O-SO 0.00 h 0 W/m 18.1 C 20.5 C 2.0 km/h (1 Bft)
21.08.2009 02:00 20.0 C 88 % 1017.1 hPa 0.0 l/m 1.4 km/h (1 Bft) O 0.00 h 0 W/m 17.9 C 20.0 C 2.4 km/h (1 Bft)
21.08.2009 03:00 19.2 C 90 % 1016.7 hPa 0.0 l/m 0.8 km/h (0 Bft) SO 0.00 h 0 W/m 17.6 C 19.2 C 1.5 km/h (1 Bft)
21.08.2009 04:00 18.7 C 93 % 1016.9 hPa 0.0 l/m 1.4 km/h (1 Bft) SO 0.00 h 0 W/m 17.4 C 18.7 C 2.3 km/h (1 Bft)
21.08.2009 05:00 18.2 C 94 % 1017.6 hPa 0.0 l/m 1.4 km/h (1 Bft) SO 0.00 h 0 W/m 17.3 C 18.2 C 2.4 km/h (1 Bft)
21.08.2009 06:00 18.6 C 92 % 1018.0 hPa 0.0 l/m 3.9 km/h (1 Bft) N-NW 0.00 h 8 W/m 17.3 C 18.6 C 7.3 km/h (2 Bft)
21.08.2009 07:00 20.2 C 80 % 1019.0 hPa 0.0 l/m 2.8 km/h (1 Bft) W 0.00 h 45 W/m 16.6 C 20.2 C 5.4 km/h (1 Bft)
21.08.2009 08:00 20.9 C 78 % 1020.2 hPa 0.6 l/m 1.2 km/h (1 Bft) W 0.00 h 27 W/m 16.9 C 20.9 C 2.5 km/h (1 Bft)
21.08.2009 09:00 20.0 C 87 % 1020.8 hPa 0.2 l/m 2.1 km/h (1 Bft) SO 0.00 h 60 W/m 17.8 C 20.0 C 4.0 km/h (1 Bft)
21.08.2009 10:00 19.8 C 91 % 1021.9 hPa 0.0 l/m 0.7 km/h (0 Bft) O-NO 0.00 h 63 W/m 18.3 C 19.8 C 1.9 km/h (1 Bft)
21.08.2009 11:00 20.4 C 91 % 1022.2 hPa 0.0 l/m 3.0 km/h (1 Bft) O-SO 0.05 h 237 W/m 18.9 C 20.4 C 5.2 km/h (1 Bft)
21.08.2009 12:00 21.4 C 86 % 1021.8 hPa 0.0 l/m 0.4 km/h (0 Bft) O-SO 0.00 h 239 W/m 18.9 C 21.4 C 1.9 km/h (1 Bft)
21.08.2009 13:00 22.3 C 83 % 1021.1 hPa 0.0 l/m 1.2 km/h (1 Bft) W-SW 0.23 h 404 W/m 19.2 C 22.3 C 3.1 km/h (1 Bft)
21.08.2009 14:00 24.1 C 75 % 1019.9 hPa 0.0 l/m 1.7 km/h (1 Bft) O-SO 0.82 h 641 W/m 19.4 C 24.1 C 3.8 km/h (1 Bft)
21.08.2009 15:00 26.0 C 67 % 1019.2 hPa 0.0 l/m 3.5 km/h (1 Bft) N-NW 1.00 h 653 W/m 19.5 C 26.0 C 6.2 km/h (2 Bft)
21.08.2009 16:00 26.8 C 59 % 1018.6 hPa 0.0 l/m 5.2 km/h (1 Bft) NW 1.00 h 531 W/m 18.1 C 26.8 C 8.0 km/h (2 Bft)
21.08.2009 17:00 26.8 C 58 % 1018.3 hPa 0.0 l/m 2.7 km/h (1 Bft) W 0.72 h 331 W/m 17.8 C 26.8 C 4.8 km/h (1 Bft)
21.08.2009 18:00 25.7 C 63 % 1018.8 hPa 0.0 l/m 3.6 km/h (1 Bft) W 0.05 h 92 W/m 18.1 C 25.7 C 6.5 km/h (2 Bft)
21.08.2009 19:00 24.3 C 64 % 1019.0 hPa 0.0 l/m 8.5 km/h (2 Bft) W-NW 0.00 h 32 W/m 17.0 C 24.3 C 13.6 km/h (3 Bft)
21.08.2009 20:00 23.2 C 66 % 1019.4 hPa 0.0 l/m 6.7 km/h (2 Bft) W 0.00 h 10 W/m 16.6 C 23.2 C 11.2 km/h (2 Bft)
21.08.2009 21:00 22.1 C 70 % 1020.1 hPa 0.0 l/m 3.1 km/h (1 Bft) W-NW 0.00 h 0 W/m 16.3 C 22.1 C 6.0 km/h (2 Bft)
21.08.2009 22:00 21.2 C 73 % 1020.6 hPa 0.0 l/m 3.0 km/h (1 Bft) W-NW 0.00 h 0 W/m 16.2 C 21.2 C 5.6 km/h (1 Bft)
21.08.2009 23:00 20.6 C 76 % 1020.8 hPa 0.0 l/m 0.4 km/h (0 Bft) W-NW 0.00 h 0 W/m 16.2 C 20.6 C 1.1 km/h (1 Bft)
22.08.2009 00:00 20.0 C 72 % 1020.9 hPa 0.0 l/m 1.2 km/h (1 Bft) O-SO 0.00 h 0 W/m 14.7 C 20.0 C 3.4 km/h (1 Bft)
22.08.2009 01:00 19.1 C 64 % 1021.0 hPa 0.0 l/m 3.5 km/h (1 Bft) O-SO 0.00 h 0 W/m 12.3 C 19.1 C 6.0 km/h (2 Bft)
22.08.2009 02:00 18.0 C 75 % 1020.7 hPa 0.2 l/m 4.9 km/h (1 Bft) O-SO 0.00 h 0 W/m 13.6 C 18.0 C 7.3 km/h (2 Bft)
22.08.2009 03:00 16.3 C 86 % 1020.9 hPa 0.0 l/m 2.3 km/h (1 Bft) SO 0.00 h 0 W/m 14.0 C 16.3 C 4.2 km/h (1 Bft)
22.08.2009 04:00 15.7 C 89 % 1021.1 hPa 0.0 l/m 1.5 km/h (1 Bft) SO 0.00 h 0 W/m 13.9 C 15.7 C 3.2 km/h (1 Bft)
22.08.2009 05:00 15.4 C 89 % 1021.3 hPa 0.0 l/m 1.8 km/h (1 Bft) SO 0.00 h 0 W/m 13.6 C 15.4 C 3.2 km/h (1 Bft)
22.08.2009 06:00 15.2 C 89 % 1021.4 hPa 0.0 l/m 0.7 km/h (0 Bft) O-SO 0.00 h 9 W/m 13.5 C 15.2 C 1.8 km/h (1 Bft)
22.08.2009 07:00 15.0 C 91 % 1022.0 hPa 0.0 l/m 2.3 km/h (1 Bft) O-SO 0.00 h 41 W/m 13.4 C 15.0 C 3.8 km/h (1 Bft)
22.08.2009 08:00 15.7 C 91 % 1022.0 hPa 0.0 l/m 1.2 km/h (1 Bft) O-SO 0.08 h 121 W/m 14.1 C 15.7 C 3.2 km/h (1 Bft)
22.08.2009 09:00 16.7 C 85 % 1022.2 hPa 0.0 l/m 4.8 km/h (1 Bft) O-SO 0.02 h 155 W/m 14.1 C 16.7 C 8.0 km/h (2 Bft)
22.08.2009 10:00 17.6 C 77 % 1022.2 hPa 0.0 l/m 5.9 km/h (2 Bft) O-SO 0.53 h 373 W/m 13.5 C 17.6 C 9.9 km/h (2 Bft)
22.08.2009 11:00 18.4 C 68 % 1022.5 hPa 0.0 l/m 4.9 km/h (1 Bft) O-SO 0.22 h 353 W/m 12.4 C 18.4 C 9.1 km/h (2 Bft)
22.08.2009 12:00 18.9 C 62 % 1022.6 hPa 0.0 l/m 8.2 km/h (2 Bft) O-SO 0.60 h 517 W/m 11.5 C 18.9 C 13.1 km/h (3 Bft)
22.08.2009 13:00 19.8 C 61 % 1022.6 hPa 0.0 l/m 7.2 km/h (2 Bft) O-SO 0.82 h 545 W/m 12.0 C 19.8 C 12.1 km/h (2 Bft)
22.08.2009 14:00 20.4 C 60 % 1022.4 hPa 0.0 l/m 8.4 km/h (2 Bft) O-SO 1.00 h 589 W/m 12.4 C 20.4 C 13.2 km/h (3 Bft)
22.08.2009 15:00 21.0 C 58 % 1022.1 hPa 0.0 l/m 7.1 km/h (2 Bft) O-SO 0.88 h 568 W/m 12.6 C 21.0 C 12.0 km/h (2 Bft)
22.08.2009 16:00 21.4 C 58 % 1021.8 hPa 0.0 l/m 9.7 km/h (2 Bft) O-SO 1.00 h 538 W/m 12.9 C 21.4 C 15.8 km/h (3 Bft)
22.08.2009 17:00 21.3 C 59 % 1021.8 hPa 0.0 l/m 8.1 km/h (2 Bft) SO 1.00 h 392 W/m 12.9 C 21.3 C 13.2 km/h (3 Bft)
22.08.2009 18:00 20.8 C 61 % 1022.2 hPa 0.0 l/m 4.9 km/h (1 Bft) O-SO 0.33 h 142 W/m 12.9 C 20.8 C 8.2 km/h (2 Bft)
22.08.2009 19:00 19.9 C 64 % 1022.5 hPa 0.0 l/m 1.2 km/h (1 Bft) O-SO 0.00 h 21 W/m 12.8 C 19.9 C 2.9 km/h (1 Bft)
22.08.2009 20:00 19.1 C 66 % 1022.7 hPa 0.0 l/m 0.3 km/h (0 Bft) O-SO 0.00 h 7 W/m 12.5 C 19.1 C 1.3 km/h (1 Bft)
22.08.2009 21:00 17.8 C 72 % 1023.1 hPa 0.0 l/m 2.1 km/h (1 Bft) O 0.00 h 0 W/m 12.5 C 17.8 C 3.3 km/h (1 Bft)
22.08.2009 22:00 16.3 C 78 % 1023.4 hPa 0.0 l/m 0.7 km/h (0 Bft) O 0.00 h 0 W/m 12.4 C 16.3 C 1.5 km/h (1 Bft)
22.08.2009 23:00 15.2 C 83 % 1023.5 hPa 0.0 l/m 0.0 km/h (0 Bft) O 0.00 h 0 W/m 12.3 C 15.2 C 0.2 km/h (0 Bft)
23.08.2009 00:00 14.2 C 87 % 1023.5 hPa 0.0 l/m 0.5 km/h (0 Bft) O 0.00 h 0 W/m 12.0 C 14.2 C 1.4 km/h (1 Bft)
23.08.2009 01:00 13.4 C 90 % 1023.2 hPa 0.0 l/m 0.5 km/h (0 Bft) O 0.00 h 0 W/m 11.8 C 13.4 C 1.5 km/h (1 Bft)
23.08.2009 02:00 12.8 C 92 % 1022.8 hPa 0.0 l/m 0.1 km/h (0 Bft) O 0.00 h 0 W/m 11.4 C 12.8 C 0.4 km/h (0 Bft)
23.08.2009 03:00 12.3 C 93 % 1022.1 hPa 0.0 l/m 0.1 km/h (0 Bft) O 0.00 h 0 W/m 11.2 C 12.3 C 0.7 km/h (0 Bft)
23.08.2009 04:00 11.7 C 93 % 1021.7 hPa 0.0 l/m 0.2 km/h (0 Bft) O 0.00 h 0 W/m 10.7 C 11.7 C 1.0 km/h (0 Bft)
23.08.2009 05:00 11.3 C 94 % 1021.3 hPa 0.0 l/m 0.1 km/h (0 Bft) O 0.00 h 0 W/m 10.4 C 11.3 C 0.5 km/h (0 Bft)
23.08.2009 06:00 10.9 C 95 % 1021.1 hPa 0.0 l/m 0.1 km/h (0 Bft) O 0.03 h 11 W/m 10.2 C 10.9 C 0.3 km/h (0 Bft)
23.08.2009 07:00 10.8 C 96 % 1021.2 hPa 0.0 l/m 0.0 km/h (0 Bft) N 0.00 h 37 W/m 10.2 C 10.8 C 0.2 km/h (0 Bft)
23.08.2009 08:00 13.0 C 97 % 1020.9 hPa 0.0 l/m 0.1 km/h (0 Bft) W-NW 0.98 h 212 W/m 12.5 C 13.0 C 0.8 km/h (0 Bft)
23.08.2009 09:00 16.9 C 75 % 1020.5 hPa 0.0 l/m 4.2 km/h (1 Bft) O-SO 1.00 h 383 W/m 12.4 C 16.9 C 7.7 km/h (2 Bft)
23.08.2009 10:00 19.0 C 66 % 1020.1 hPa 0.0 l/m 5.0 km/h (1 Bft) O-SO 1.00 h 517 W/m 12.5 C 19.0 C 9.3 km/h (2 Bft)
23.08.2009 11:00 20.3 C 60 % 1019.6 hPa 0.0 l/m 6.5 km/h (2 Bft) O-SO 1.00 h 645 W/m 12.2 C 20.3 C 12.8 km/h (3 Bft)
23.08.2009 12:00 21.9 C 57 % 1018.9 hPa 0.0 l/m 5.2 km/h (1 Bft) O-SO 1.00 h 736 W/m 13.0 C 21.9 C 10.9 km/h (2 Bft)
23.08.2009 13:00 22.9 C 54 % 1018.0 hPa 0.0 l/m 6.8 km/h (2 Bft) O-SO 1.00 h 769 W/m 13.2 C 22.9 C 13.2 km/h (3 Bft)
23.08.2009 14:00 23.9 C 50 % 1017.4 hPa 0.0 l/m 6.9 km/h (2 Bft) O-SO 1.00 h 749 W/m 12.9 C 23.9 C 12.6 km/h (3 Bft)
23.08.2009 15:00 24.4 C 49 % 1016.5 hPa 0.0 l/m 8.8 km/h (2 Bft) O-SO 1.00 h 679 W/m 12.9 C 24.4 C 14.7 km/h (3 Bft)
23.08.2009 16:00 24.5 C 47 % 1015.9 hPa 0.0 l/m 11.6 km/h (2 Bft) O-SO 1.00 h 564 W/m 12.6 C 24.5 C 17.8 km/h (3 Bft)
23.08.2009 17:00 24.6 C 47 % 1015.3 hPa 0.0 l/m 8.8 km/h (2 Bft) O-SO 1.00 h 414 W/m 12.6 C 24.6 C 14.5 km/h (3 Bft)
23.08.2009 18:00 24.2 C 50 % 1015.1 hPa 0.0 l/m 5.2 km/h (1 Bft) O-SO 1.00 h 247 W/m 13.1 C 24.2 C 9.4 km/h (2 Bft)
23.08.2009 19:00 23.4 C 52 % 1014.7 hPa 0.0 l/m 2.0 km/h (1 Bft) O-SO 0.67 h 87 W/m 13.1 C 23.4 C 4.9 km/h (1 Bft)
23.08.2009 20:00 21.8 C 57 % 1014.5 hPa 0.0 l/m 0.3 km/h (0 Bft) O-SO 0.03 h 11 W/m 12.7 C 21.8 C 1.7 km/h (1 Bft)
23.08.2009 21:00 20.4 C 62 % 1014.5 hPa 0.0 l/m 1.2 km/h (1 Bft) NO 0.00 h 0 W/m 12.8 C 20.4 C 3.7 km/h (1 Bft)
23.08.2009 22:00 19.3 C 67 % 1014.4 hPa 0.0 l/m 0.5 km/h (0 Bft) O 0.00 h 0 W/m 12.9 C 19.3 C 1.6 km/h (1 Bft)
23.08.2009 23:00 17.7 C 73 % 1014.0 hPa 0.0 l/m 0.2 km/h (0 Bft) SW 0.00 h 0 W/m 12.8 C 17.7 C 0.6 km/h (0 Bft)
Min-Datum _ 23.08.09 17.08.09 17.08.09 - 17.08.09 - - - 23.08.09 23.08.09 17.08.09
_ Min-Zeit 07:00 16:27 18:00 - 00:00 - - - 07:08 07:08 00:01
Minimum _ 10.7 C 29 % 1012.4 hPa - 0.0 km/h (0 Bft) - - - 9.9 C 10.7 C 0.0 km/h (0 Bft)
Max-Datum _ 20.08.09 20.08.09 22.08.09 17.08.09 17.08.09 - 17.08.09 17.08.09 19.08.09 20.08.09 17.08.09
_ Max-Zeit 17:25 08:21 23:45 18:48 18:39 - 06:36 13:25 12:06 17:25 18:42
Maximum _ 33.7 C 98 % 1023.6 hPa 2.6 l/m 34.8 km/h
W (5 Bft)
- 0.02 h 904 W/m 21.8 C 33.7 C 57.4 km/h
W-SW (7 Bft)
Durchschnitt _ 21.9 C 73 % 1018.5 hPa #4.0 l/m 2.2 km/h (1 Bft) O-SO #65:09 h 356 W/m 16.3 C 21.9 C 4.2 km/h (1 Bft)
© Kaiko 2009